sensor_id;sensor_type;location;lat;lon;timestamp;temperature;humidity
51839;DHT22;37886;53.174;6.368;2023-03-23T00:01:22;10.30;99.90
51839;DHT22;37886;53.174;6.368;2023-03-23T00:03:51;10.30;99.90
51839;DHT22;37886;53.174;6.368;2023-03-23T00:06:18;10.30;99.90
51839;DHT22;37886;53.174;6.368;2023-03-23T00:08:46;10.30;99.90
51839;DHT22;37886;53.174;6.368;2023-03-23T00:11:13;10.40;99.90
51839;DHT22;37886;53.174;6.368;2023-03-23T00:13:44;10.40;99.90
51839;DHT22;37886;53.174;6.368;2023-03-23T00:16:12;10.40;99.90
51839;DHT22;37886;53.174;6.368;2023-03-23T00:18:48;10.50;99.90
51839;DHT22;37886;53.174;6.368;2023-03-23T00:21:21;10.50;99.90
51839;DHT22;37886;53.174;6.368;2023-03-23T00:23:51;10.60;99.90
51839;DHT22;37886;53.174;6.368;2023-03-23T00:26:17;10.60;99.90
51839;DHT22;37886;53.174;6.368;2023-03-23T00:28:44;10.60;99.90
51839;DHT22;37886;53.174;6.368;2023-03-23T00:31:12;10.50;99.90
51839;DHT22;37886;53.174;6.368;2023-03-23T00:33:39;10.60;99.90
51839;DHT22;37886;53.174;6.368;2023-03-23T00:36:11;10.70;99.90
51839;DHT22;37886;53.174;6.368;2023-03-23T00:38:37;10.70;99.90
51839;DHT22;37886;53.174;6.368;2023-03-23T00:41:04;10.80;99.90
51839;DHT22;37886;53.174;6.368;2023-03-23T00:43:30;10.80;99.90
51839;DHT22;37886;53.174;6.368;2023-03-23T00:45:57;10.80;99.90
51839;DHT22;37886;53.174;6.368;2023-03-23T00:48:28;10.90;99.90
51839;DHT22;37886;53.174;6.368;2023-03-23T00:50:54;10.90;99.90
51839;DHT22;37886;53.174;6.368;2023-03-23T00:53:20;10.90;99.90
51839;DHT22;37886;53.174;6.368;2023-03-23T00:55:47;11.10;99.90
51839;DHT22;37886;53.174;6.368;2023-03-23T00:58:13;11.10;99.90
51839;DHT22;37886;53.174;6.368;2023-03-23T01:00:40;11.00;99.90
51839;DHT22;37886;53.174;6.368;2023-03-23T01:03:07;10.90;99.90
51839;DHT22;37886;53.174;6.368;2023-03-23T01:05:37;10.80;99.90
51839;DHT22;37886;53.174;6.368;2023-03-23T01:08:04;10.80;99.90
51839;DHT22;37886;53.174;6.368;2023-03-23T01:10:30;10.70;99.90
51839;DHT22;37886;53.174;6.368;2023-03-23T01:13:01;10.70;99.90
51839;DHT22;37886;53.174;6.368;2023-03-23T01:15:28;10.60;99.90
51839;DHT22;37886;53.174;6.368;2023-03-23T01:17:54;10.50;99.90
51839;DHT22;37886;53.174;6.368;2023-03-23T01:20:21;10.50;99.90
51839;DHT22;37886;53.174;6.368;2023-03-23T01:22:46;10.40;99.90
51839;DHT22;37886;53.174;6.368;2023-03-23T01:25:14;10.40;99.90
51839;DHT22;37886;53.174;6.368;2023-03-23T01:27:40;10.40;99.90
51839;DHT22;37886;53.174;6.368;2023-03-23T01:30:07;10.40;99.90
51839;DHT22;37886;53.174;6.368;2023-03-23T01:32:33;10.50;99.90
51839;DHT22;37886;53.174;6.368;2023-03-23T01:34:59;10.60;99.90
51839;DHT22;37886;53.174;6.368;2023-03-23T01:37:25;10.70;99.90
51839;DHT22;37886;53.174;6.368;2023-03-23T01:39:56;10.80;99.90
51839;DHT22;37886;53.174;6.368;2023-03-23T01:42:24;10.80;99.90
51839;DHT22;37886;53.174;6.368;2023-03-23T01:47:17;11.00;99.90
51839;DHT22;37886;53.174;6.368;2023-03-23T01:49:50;11.10;99.90
51839;DHT22;37886;53.174;6.368;2023-03-23T01:52:23;11.10;99.90
51839;DHT22;37886;53.174;6.368;2023-03-23T01:54:53;11.10;99.90
51839;DHT22;37886;53.174;6.368;2023-03-23T01:57:22;11.10;99.90
51839;DHT22;37886;53.174;6.368;2023-03-23T01:59:51;11.10;99.90
51839;DHT22;37886;53.174;6.368;2023-03-23T02:02:20;11.20;99.90
51839;DHT22;37886;53.174;6.368;2023-03-23T02:04:47;11.20;99.90
51839;DHT22;37886;53.174;6.368;2023-03-23T02:07:14;11.30;99.90
51839;DHT22;37886;53.174;6.368;2023-03-23T02:09:41;11.30;99.90
51839;DHT22;37886;53.174;6.368;2023-03-23T02:12:07;11.30;99.90
51839;DHT22;37886;53.174;6.368;2023-03-23T02:14:33;11.20;99.90
51839;DHT22;37886;53.174;6.368;2023-03-23T02:17:10;11.20;99.90
51839;DHT22;37886;53.174;6.368;2023-03-23T02:30:47;11.40;99.90
51839;DHT22;37886;53.174;6.368;2023-03-23T02:35:58;11.50;99.90
51839;DHT22;37886;53.174;6.368;2023-03-23T02:38:50;11.50;99.90
51839;DHT22;37886;53.174;6.368;2023-03-23T02:41:20;11.50;99.90
51839;DHT22;37886;53.174;6.368;2023-03-23T02:43:49;11.40;99.90
51839;DHT22;37886;53.174;6.368;2023-03-23T02:46:16;11.40;99.90
51839;DHT22;37886;53.174;6.368;2023-03-23T02:48:44;11.40;99.90
51839;DHT22;37886;53.174;6.368;2023-03-23T02:51:12;11.40;99.90
51839;DHT22;37886;53.174;6.368;2023-03-23T02:53:41;11.40;99.90
51839;DHT22;37886;53.174;6.368;2023-03-23T02:56:08;11.40;99.90
51839;DHT22;37886;53.174;6.368;2023-03-23T02:58:36;11.40;99.90
51839;DHT22;37886;53.174;6.368;2023-03-23T03:03:56;11.40;99.90
51839;DHT22;37886;53.174;6.368;2023-03-23T03:06:25;11.40;99.90
51839;DHT22;37886;53.174;6.368;2023-03-23T03:09:03;11.30;99.90
51839;DHT22;37886;53.174;6.368;2023-03-23T03:11:33;11.20;99.90
51839;DHT22;37886;53.174;6.368;2023-03-23T03:14:10;11.30;99.90
51839;DHT22;37886;53.174;6.368;2023-03-23T03:19:22;11.20;99.90
51839;DHT22;37886;53.174;6.368;2023-03-23T03:21:52;11.20;99.90
51839;DHT22;37886;53.174;6.368;2023-03-23T03:24:20;11.20;99.90
51839;DHT22;37886;53.174;6.368;2023-03-23T03:26:51;11.30;99.90
51839;DHT22;37886;53.174;6.368;2023-03-23T03:29:38;11.30;99.90
51839;DHT22;37886;53.174;6.368;2023-03-23T03:32:11;11.30;99.90
51839;DHT22;37886;53.174;6.368;2023-03-23T03:34:37;11.30;99.90
51839;DHT22;37886;53.174;6.368;2023-03-23T03:37:04;11.20;99.90
51839;DHT22;37886;53.174;6.368;2023-03-23T03:39:33;11.30;99.90
51839;DHT22;37886;53.174;6.368;2023-03-23T03:41:59;11.30;99.90
51839;DHT22;37886;53.174;6.368;2023-03-23T03:44:25;11.30;99.90
51839;DHT22;37886;53.174;6.368;2023-03-23T03:46:51;11.20;99.90
51839;DHT22;37886;53.174;6.368;2023-03-23T03:49:17;11.20;99.90
51839;DHT22;37886;53.174;6.368;2023-03-23T03:51:43;11.00;99.90
51839;DHT22;37886;53.174;6.368;2023-03-23T03:54:08;10.90;99.90
51839;DHT22;37886;53.174;6.368;2023-03-23T03:56:36;10.90;99.90
51839;DHT22;37886;53.174;6.368;2023-03-23T03:59:06;10.90;99.90
51839;DHT22;37886;53.174;6.368;2023-03-23T04:01:34;11.00;99.90
51839;DHT22;37886;53.174;6.368;2023-03-23T04:04:00;11.00;99.90
51839;DHT22;37886;53.174;6.368;2023-03-23T04:06:25;10.90;99.90
51839;DHT22;37886;53.174;6.368;2023-03-23T04:08:57;11.00;99.90
51839;DHT22;37886;53.174;6.368;2023-03-23T04:11:25;11.00;99.90
51839;DHT22;37886;53.174;6.368;2023-03-23T04:13:51;10.90;99.90
51839;DHT22;37886;53.174;6.368;2023-03-23T04:16:17;10.80;99.90
51839;DHT22;37886;53.174;6.368;2023-03-23T04:18:43;10.90;99.90
51839;DHT22;37886;53.174;6.368;2023-03-23T04:21:09;10.80;99.90
51839;DHT22;37886;53.174;6.368;2023-03-23T04:23:35;10.80;99.90
51839;DHT22;37886;53.174;6.368;2023-03-23T04:26:02;10.80;99.90
51839;DHT22;37886;53.174;6.368;2023-03-23T04:28:29;10.70;99.90
51839;DHT22;37886;53.174;6.368;2023-03-23T04:30:59;10.60;99.90
51839;DHT22;37886;53.174;6.368;2023-03-23T04:33:27;10.60;99.90
51839;DHT22;37886;53.174;6.368;2023-03-23T04:35:55;10.50;99.90
51839;DHT22;37886;53.174;6.368;2023-03-23T04:38:23;10.60;99.90
51839;DHT22;37886;53.174;6.368;2023-03-23T04:40:51;10.60;99.90
51839;DHT22;37886;53.174;6.368;2023-03-23T04:43:22;10.60;99.90
51839;DHT22;37886;53.174;6.368;2023-03-23T04:45:57;10.70;99.90
51839;DHT22;37886;53.174;6.368;2023-03-23T04:48:24;10.60;99.90
51839;DHT22;37886;53.174;6.368;2023-03-23T04:50:51;10.60;99.90
51839;DHT22;37886;53.174;6.368;2023-03-23T04:53:17;10.60;99.90
51839;DHT22;37886;53.174;6.368;2023-03-23T04:55:44;10.60;99.90
51839;DHT22;37886;53.174;6.368;2023-03-23T04:58:10;10.60;99.90
51839;DHT22;37886;53.174;6.368;2023-03-23T05:00:38;10.60;99.90
51839;DHT22;37886;53.174;6.368;2023-03-23T05:03:04;10.70;99.90
51839;DHT22;37886;53.174;6.368;2023-03-23T05:05:30;10.60;99.90
51839;DHT22;37886;53.174;6.368;2023-03-23T05:07:57;10.60;99.90
51839;DHT22;37886;53.174;6.368;2023-03-23T05:10:23;10.70;99.90
51839;DHT22;37886;53.174;6.368;2023-03-23T05:12:49;10.70;99.90
51839;DHT22;37886;53.174;6.368;2023-03-23T05:15:16;10.60;99.90
51839;DHT22;37886;53.174;6.368;2023-03-23T05:17:42;10.60;99.90
51839;DHT22;37886;53.174;6.368;2023-03-23T05:20:16;10.50;99.90
51839;DHT22;37886;53.174;6.368;2023-03-23T05:22:48;10.60;99.90
51839;DHT22;37886;53.174;6.368;2023-03-23T05:25:15;10.70;99.90
51839;DHT22;37886;53.174;6.368;2023-03-23T05:27:41;10.70;99.90
51839;DHT22;37886;53.174;6.368;2023-03-23T05:30:14;10.70;99.90
51839;DHT22;37886;53.174;6.368;2023-03-23T05:32:43;10.70;99.90
51839;DHT22;37886;53.174;6.368;2023-03-23T05:35:11;10.80;99.90
51839;DHT22;37886;53.174;6.368;2023-03-23T05:37:37;10.80;99.90
51839;DHT22;37886;53.174;6.368;2023-03-23T05:40:04;10.70;99.90
51839;DHT22;37886;53.174;6.368;2023-03-23T05:42:32;10.70;99.90
51839;DHT22;37886;53.174;6.368;2023-03-23T05:44:58;10.70;99.90
51839;DHT22;37886;53.174;6.368;2023-03-23T05:47:24;10.80;99.90
51839;DHT22;37886;53.174;6.368;2023-03-23T05:49:51;10.90;99.90
51839;DHT22;37886;53.174;6.368;2023-03-23T05:52:17;10.90;99.90
51839;DHT22;37886;53.174;6.368;2023-03-23T05:54:43;10.80;99.90
51839;DHT22;37886;53.174;6.368;2023-03-23T05:57:10;10.80;99.90
51839;DHT22;37886;53.174;6.368;2023-03-23T05:59:36;10.80;99.90
51839;DHT22;37886;53.174;6.368;2023-03-23T06:02:03;10.80;99.90
51839;DHT22;37886;53.174;6.368;2023-03-23T06:04:29;10.80;99.90
51839;DHT22;37886;53.174;6.368;2023-03-23T06:06:54;10.80;99.90
51839;DHT22;37886;53.174;6.368;2023-03-23T06:09:21;10.80;99.90
51839;DHT22;37886;53.174;6.368;2023-03-23T06:11:49;10.90;99.90
51839;DHT22;37886;53.174;6.368;2023-03-23T06:14:15;11.00;99.90
51839;DHT22;37886;53.174;6.368;2023-03-23T06:16:42;10.90;99.90
51839;DHT22;37886;53.174;6.368;2023-03-23T06:19:08;10.90;99.90
51839;DHT22;37886;53.174;6.368;2023-03-23T06:21:37;10.90;99.90
51839;DHT22;37886;53.174;6.368;2023-03-23T06:24:03;11.00;99.90
51839;DHT22;37886;53.174;6.368;2023-03-23T06:26:32;11.00;99.90
51839;DHT22;37886;53.174;6.368;2023-03-23T06:28:59;11.00;99.90
51839;DHT22;37886;53.174;6.368;2023-03-23T06:31:26;11.00;99.90
51839;DHT22;37886;53.174;6.368;2023-03-23T06:33:52;10.90;99.90
51839;DHT22;37886;53.174;6.368;2023-03-23T06:36:18;10.70;99.90
51839;DHT22;37886;53.174;6.368;2023-03-23T06:38:45;10.50;99.90
51839;DHT22;37886;53.174;6.368;2023-03-23T06:41:11;10.30;99.90
51839;DHT22;37886;53.174;6.368;2023-03-23T06:43:37;10.20;99.90
51839;DHT22;37886;53.174;6.368;2023-03-23T06:46:05;10.10;99.90
51839;DHT22;37886;53.174;6.368;2023-03-23T06:48:31;10.10;99.90
51839;DHT22;37886;53.174;6.368;2023-03-23T06:50:57;10.00;99.90
51839;DHT22;37886;53.174;6.368;2023-03-23T06:53:23;10.00;99.90
51839;DHT22;37886;53.174;6.368;2023-03-23T06:55:49;10.00;99.90
51839;DHT22;37886;53.174;6.368;2023-03-23T06:58:15;10.10;99.90
51839;DHT22;37886;53.174;6.368;2023-03-23T07:00:40;10.10;99.90
51839;DHT22;37886;53.174;6.368;2023-03-23T07:03:06;10.20;99.90
51839;DHT22;37886;53.174;6.368;2023-03-23T07:05:34;10.20;99.90
51839;DHT22;37886;53.174;6.368;2023-03-23T07:08:01;10.20;99.90
51839;DHT22;37886;53.174;6.368;2023-03-23T07:10:27;10.20;99.90
51839;DHT22;37886;53.174;6.368;2023-03-23T07:12:53;10.20;99.90
51839;DHT22;37886;53.174;6.368;2023-03-23T07:15:19;10.30;99.90
51839;DHT22;37886;53.174;6.368;2023-03-23T07:17:46;10.40;99.90
51839;DHT22;37886;53.174;6.368;2023-03-23T07:20:12;10.40;99.90
51839;DHT22;37886;53.174;6.368;2023-03-23T07:22:39;10.50;99.90
51839;DHT22;37886;53.174;6.368;2023-03-23T07:25:05;10.50;99.90
51839;DHT22;37886;53.174;6.368;2023-03-23T07:27:31;10.60;99.90
51839;DHT22;37886;53.174;6.368;2023-03-23T07:29:56;10.70;99.90
51839;DHT22;37886;53.174;6.368;2023-03-23T07:32:23;10.80;99.90
51839;DHT22;37886;53.174;6.368;2023-03-23T07:34:49;10.80;99.90
51839;DHT22;37886;53.174;6.368;2023-03-23T07:37:15;10.90;99.90
51839;DHT22;37886;53.174;6.368;2023-03-23T07:39:42;11.00;99.90
51839;DHT22;37886;53.174;6.368;2023-03-23T07:42:08;11.00;99.90
51839;DHT22;37886;53.174;6.368;2023-03-23T07:44:34;11.00;99.90
51839;DHT22;37886;53.174;6.368;2023-03-23T07:47:00;11.20;99.90
51839;DHT22;37886;53.174;6.368;2023-03-23T07:49:25;11.20;99.90
51839;DHT22;37886;53.174;6.368;2023-03-23T07:51:52;11.10;99.90
51839;DHT22;37886;53.174;6.368;2023-03-23T07:54:18;11.20;99.90
51839;DHT22;37886;53.174;6.368;2023-03-23T07:56:44;11.10;99.90
51839;DHT22;37886;53.174;6.368;2023-03-23T07:59:11;11.20;99.90
51839;DHT22;37886;53.174;6.368;2023-03-23T08:01:38;11.20;99.90
51839;DHT22;37886;53.174;6.368;2023-03-23T08:04:04;11.20;99.90
51839;DHT22;37886;53.174;6.368;2023-03-23T08:06:32;11.20;99.90
51839;DHT22;37886;53.174;6.368;2023-03-23T08:08:59;11.20;99.90
51839;DHT22;37886;53.174;6.368;2023-03-23T08:11:25;11.10;99.90
51839;DHT22;37886;53.174;6.368;2023-03-23T08:13:51;11.20;99.90
51839;DHT22;37886;53.174;6.368;2023-03-23T08:16:17;11.20;99.90
51839;DHT22;37886;53.174;6.368;2023-03-23T08:18:45;11.20;99.90
51839;DHT22;37886;53.174;6.368;2023-03-23T08:21:11;11.20;99.90
51839;DHT22;37886;53.174;6.368;2023-03-23T08:23:38;11.30;99.90
51839;DHT22;37886;53.174;6.368;2023-03-23T08:26:09;11.30;99.90
51839;DHT22;37886;53.174;6.368;2023-03-23T08:28:36;11.20;99.90
51839;DHT22;37886;53.174;6.368;2023-03-23T08:31:13;11.20;99.90
51839;DHT22;37886;53.174;6.368;2023-03-23T08:33:40;11.20;99.90
51839;DHT22;37886;53.174;6.368;2023-03-23T08:36:07;11.20;99.90
51839;DHT22;37886;53.174;6.368;2023-03-23T08:38:34;11.20;99.90
51839;DHT22;37886;53.174;6.368;2023-03-23T08:41:05;11.20;99.90
51839;DHT22;37886;53.174;6.368;2023-03-23T08:43:34;11.20;99.90
51839;DHT22;37886;53.174;6.368;2023-03-23T08:46:00;11.20;99.90
51839;DHT22;37886;53.174;6.368;2023-03-23T08:48:32;11.30;99.90
51839;DHT22;37886;53.174;6.368;2023-03-23T08:50:58;11.30;99.90
51839;DHT22;37886;53.174;6.368;2023-03-23T08:53:25;11.50;99.90
51839;DHT22;37886;53.174;6.368;2023-03-23T08:55:51;11.50;99.90
51839;DHT22;37886;53.174;6.368;2023-03-23T08:58:17;11.50;99.90
51839;DHT22;37886;53.174;6.368;2023-03-23T09:00:43;11.60;99.90
51839;DHT22;37886;53.174;6.368;2023-03-23T09:03:09;11.70;99.90
51839;DHT22;37886;53.174;6.368;2023-03-23T09:05:35;11.60;99.90
51839;DHT22;37886;53.174;6.368;2023-03-23T09:08:02;11.70;99.90
51839;DHT22;37886;53.174;6.368;2023-03-23T09:10:29;11.70;99.90
51839;DHT22;37886;53.174;6.368;2023-03-23T09:12:56;11.90;99.90
51839;DHT22;37886;53.174;6.368;2023-03-23T09:15:22;12.00;99.90
51839;DHT22;37886;53.174;6.368;2023-03-23T09:17:50;11.90;99.90
51839;DHT22;37886;53.174;6.368;2023-03-23T09:20:19;11.90;99.90
51839;DHT22;37886;53.174;6.368;2023-03-23T09:22:47;11.90;99.90
51839;DHT22;37886;53.174;6.368;2023-03-23T09:25:16;12.00;99.90
51839;DHT22;37886;53.174;6.368;2023-03-23T09:27:44;11.90;99.90
51839;DHT22;37886;53.174;6.368;2023-03-23T09:30:13;11.90;99.90
51839;DHT22;37886;53.174;6.368;2023-03-23T09:32:40;11.70;99.90
51839;DHT22;37886;53.174;6.368;2023-03-23T09:35:09;11.80;99.90
51839;DHT22;37886;53.174;6.368;2023-03-23T09:37:38;11.80;99.90
51839;DHT22;37886;53.174;6.368;2023-03-23T09:40:09;12.00;99.90
51839;DHT22;37886;53.174;6.368;2023-03-23T09:53:45;13.40;99.90
51839;DHT22;37886;53.174;6.368;2023-03-23T09:56:15;13.30;99.90
51839;DHT22;37886;53.174;6.368;2023-03-23T09:59:02;13.10;99.90
51839;DHT22;37886;53.174;6.368;2023-03-23T10:01:38;13.30;99.90
51839;DHT22;37886;53.174;6.368;2023-03-23T10:04:18;13.10;99.90
51839;DHT22;37886;53.174;6.368;2023-03-23T10:06:47;13.10;99.90
51839;DHT22;37886;53.174;6.368;2023-03-23T10:09:16;13.20;99.90
51839;DHT22;37886;53.174;6.368;2023-03-23T10:11:50;13.10;99.90
51839;DHT22;37886;53.174;6.368;2023-03-23T10:14:37;13.20;99.90
51839;DHT22;37886;53.174;6.368;2023-03-23T10:17:32;13.20;99.90
51839;DHT22;37886;53.174;6.368;2023-03-23T10:25:19;13.60;99.90
51839;DHT22;37886;53.174;6.368;2023-03-23T10:27:50;13.50;99.90
51839;DHT22;37886;53.174;6.368;2023-03-23T10:30:30;13.30;99.90
51839;DHT22;37886;53.174;6.368;2023-03-23T10:33:18;13.10;99.90
51839;DHT22;37886;53.174;6.368;2023-03-23T10:35:56;12.70;99.90
51839;DHT22;37886;53.174;6.368;2023-03-23T10:38:33;12.60;99.90
51839;DHT22;37886;53.174;6.368;2023-03-23T10:41:04;12.50;99.90
51839;DHT22;37886;53.174;6.368;2023-03-23T10:43:31;12.50;99.90
51839;DHT22;37886;53.174;6.368;2023-03-23T10:46:02;12.60;99.90
51839;DHT22;37886;53.174;6.368;2023-03-23T10:48:31;12.50;99.90
51839;DHT22;37886;53.174;6.368;2023-03-23T10:51:03;12.50;99.90
51839;DHT22;37886;53.174;6.368;2023-03-23T10:53:36;12.50;99.90
51839;DHT22;37886;53.174;6.368;2023-03-23T10:56:04;12.50;99.90
51839;DHT22;37886;53.174;6.368;2023-03-23T10:58:32;12.50;99.90
51839;DHT22;37886;53.174;6.368;2023-03-23T11:01:00;12.50;99.90
51839;DHT22;37886;53.174;6.368;2023-03-23T11:06:02;12.70;99.90
51839;DHT22;37886;53.174;6.368;2023-03-23T11:08:35;12.90;99.90
51839;DHT22;37886;53.174;6.368;2023-03-23T11:11:11;12.90;99.90
51839;DHT22;37886;53.174;6.368;2023-03-23T11:13:47;13.00;99.90
51839;DHT22;37886;53.174;6.368;2023-03-23T11:16:27;13.00;99.90
51839;DHT22;37886;53.174;6.368;2023-03-23T11:18:53;13.30;99.90
51839;DHT22;37886;53.174;6.368;2023-03-23T11:21:21;13.60;99.90
51839;DHT22;37886;53.174;6.368;2023-03-23T11:23:54;13.80;99.90
51839;DHT22;37886;53.174;6.368;2023-03-23T11:26:32;14.10;99.90
51839;DHT22;37886;53.174;6.368;2023-03-23T11:31:47;14.40;99.90
51839;DHT22;37886;53.174;6.368;2023-03-23T11:34:25;14.60;99.90
51839;DHT22;37886;53.174;6.368;2023-03-23T11:37:41;14.30;99.90
51839;DHT22;37886;53.174;6.368;2023-03-23T11:39:56;14.40;99.90
51839;DHT22;37886;53.174;6.368;2023-03-23T11:42:45;14.70;99.90
51839;DHT22;37886;53.174;6.368;2023-03-23T11:50:52;15.00;99.90
51839;DHT22;37886;53.174;6.368;2023-03-23T11:56:34;15.30;99.90
51839;DHT22;37886;53.174;6.368;2023-03-23T11:59:01;15.40;99.90
51839;DHT22;37886;53.174;6.368;2023-03-23T12:10:15;15.70;99.90
51839;DHT22;37886;53.174;6.368;2023-03-23T12:15:28;15.60;99.90
51839;DHT22;37886;53.174;6.368;2023-03-23T12:20:59;16.00;99.90
51839;DHT22;37886;53.174;6.368;2023-03-23T12:23:44;16.00;99.90
51839;DHT22;37886;53.174;6.368;2023-03-23T12:29:04;15.80;99.90
51839;DHT22;37886;53.174;6.368;2023-03-23T12:34:37;15.70;99.90
51839;DHT22;37886;53.174;6.368;2023-03-23T12:47:57;15.00;99.90
51839;DHT22;37886;53.174;6.368;2023-03-23T12:50:43;14.80;99.90
51839;DHT22;37886;53.174;6.368;2023-03-23T12:53:18;14.50;99.90
51839;DHT22;37886;53.174;6.368;2023-03-23T12:55:50;14.50;99.90
51839;DHT22;37886;53.174;6.368;2023-03-23T12:58:26;14.80;99.90
51839;DHT22;37886;53.174;6.368;2023-03-23T13:00:58;15.20;99.90
51839;DHT22;37886;53.174;6.368;2023-03-23T13:03:50;15.20;99.90
51839;DHT22;37886;53.174;6.368;2023-03-23T13:06:46;14.90;99.90
51839;DHT22;37886;53.174;6.368;2023-03-23T13:11:56;14.50;99.90
51839;DHT22;37886;53.174;6.368;2023-03-23T13:14:37;14.30;99.90
51839;DHT22;37886;53.174;6.368;2023-03-23T13:17:18;14.40;99.90
51839;DHT22;37886;53.174;6.368;2023-03-23T13:25:48;14.30;99.90
51839;DHT22;37886;53.174;6.368;2023-03-23T13:28:23;14.20;99.90
51839;DHT22;37886;53.174;6.368;2023-03-23T13:31:03;14.10;99.90
51839;DHT22;37886;53.174;6.368;2023-03-23T13:33:34;14.00;99.90
51839;DHT22;37886;53.174;6.368;2023-03-23T13:36:10;14.10;99.90
51839;DHT22;37886;53.174;6.368;2023-03-23T13:38:37;14.10;99.90
51839;DHT22;37886;53.174;6.368;2023-03-23T13:41:11;14.10;99.90
51839;DHT22;37886;53.174;6.368;2023-03-23T13:43:39;14.10;99.90
51839;DHT22;37886;53.174;6.368;2023-03-23T13:46:29;14.20;99.90
51839;DHT22;37886;53.174;6.368;2023-03-23T13:56:56;14.50;99.90
51839;DHT22;37886;53.174;6.368;2023-03-23T13:59:34;14.90;99.90
51839;DHT22;37886;53.174;6.368;2023-03-23T14:02:58;14.90;99.90
51839;DHT22;37886;53.174;6.368;2023-03-23T14:08:21;14.20;99.90
51839;DHT22;37886;53.174;6.368;2023-03-23T14:15:59;14.20;99.90
51839;DHT22;37886;53.174;6.368;2023-03-23T14:18:36;14.10;99.90
51839;DHT22;37886;53.174;6.368;2023-03-23T14:21:02;14.00;99.90
51839;DHT22;37886;53.174;6.368;2023-03-23T14:23:31;14.00;99.90
51839;DHT22;37886;53.174;6.368;2023-03-23T14:26:17;14.10;99.90
51839;DHT22;37886;53.174;6.368;2023-03-23T14:28:50;14.00;99.90
51839;DHT22;37886;53.174;6.368;2023-03-23T14:31:25;14.00;99.90
51839;DHT22;37886;53.174;6.368;2023-03-23T14:33:53;14.70;99.90
51839;DHT22;37886;53.174;6.368;2023-03-23T14:36:26;14.70;99.90
51839;DHT22;37886;53.174;6.368;2023-03-23T14:39:05;15.00;99.90
51839;DHT22;37886;53.174;6.368;2023-03-23T14:41:33;14.80;99.90
51839;DHT22;37886;53.174;6.368;2023-03-23T14:44:01;14.60;99.90
51839;DHT22;37886;53.174;6.368;2023-03-23T14:46:30;15.30;99.90
51839;DHT22;37886;53.174;6.368;2023-03-23T14:48:58;15.20;99.90
51839;DHT22;37886;53.174;6.368;2023-03-23T14:51:25;15.60;99.90
51839;DHT22;37886;53.174;6.368;2023-03-23T14:53:53;15.90;99.90
51839;DHT22;37886;53.174;6.368;2023-03-23T14:56:20;16.70;99.90
51839;DHT22;37886;53.174;6.368;2023-03-23T14:58:52;17.30;99.90
51839;DHT22;37886;53.174;6.368;2023-03-23T15:01:27;16.20;99.90
51839;DHT22;37886;53.174;6.368;2023-03-23T15:06:33;16.40;99.90
51839;DHT22;37886;53.174;6.368;2023-03-23T15:09:22;16.40;99.90
51839;DHT22;37886;53.174;6.368;2023-03-23T15:14:22;16.50;99.90
51839;DHT22;37886;53.174;6.368;2023-03-23T15:16:53;16.50;99.90
51839;DHT22;37886;53.174;6.368;2023-03-23T15:19:39;16.60;99.90
51839;DHT22;37886;53.174;6.368;2023-03-23T15:22:25;16.60;99.90
51839;DHT22;37886;53.174;6.368;2023-03-23T15:24:53;16.80;99.90
51839;DHT22;37886;53.174;6.368;2023-03-23T15:27:38;15.90;99.90
51839;DHT22;37886;53.174;6.368;2023-03-23T15:30:32;15.60;99.90
51839;DHT22;37886;53.174;6.368;2023-03-23T15:33:06;15.50;99.90
51839;DHT22;37886;53.174;6.368;2023-03-23T15:35:55;15.20;99.90
51839;DHT22;37886;53.174;6.368;2023-03-23T15:38:24;15.00;99.90
51839;DHT22;37886;53.174;6.368;2023-03-23T15:40:53;14.90;99.90
51839;DHT22;37886;53.174;6.368;2023-03-23T15:46:03;15.10;99.90
51839;DHT22;37886;53.174;6.368;2023-03-23T15:49:16;15.00;99.90
51839;DHT22;37886;53.174;6.368;2023-03-23T15:51:20;14.80;99.90
51839;DHT22;37886;53.174;6.368;2023-03-23T15:53:48;15.20;99.90
51839;DHT22;37886;53.174;6.368;2023-03-23T15:56:15;15.00;99.90
51839;DHT22;37886;53.174;6.368;2023-03-23T15:58:42;14.90;99.90
51839;DHT22;37886;53.174;6.368;2023-03-23T16:01:12;14.80;99.90
51839;DHT22;37886;53.174;6.368;2023-03-23T16:06:05;14.70;99.90
51839;DHT22;37886;53.174;6.368;2023-03-23T16:08:31;14.40;99.90
51839;DHT22;37886;53.174;6.368;2023-03-23T16:10:56;14.50;99.90
51839;DHT22;37886;53.174;6.368;2023-03-23T16:13:22;14.30;99.90
51839;DHT22;37886;53.174;6.368;2023-03-23T16:15:48;14.20;99.90
51839;DHT22;37886;53.174;6.368;2023-03-23T16:18:20;14.00;99.90
51839;DHT22;37886;53.174;6.368;2023-03-23T16:20:49;13.90;99.90
51839;DHT22;37886;53.174;6.368;2023-03-23T16:23:15;13.80;99.90
51839;DHT22;37886;53.174;6.368;2023-03-23T16:25:40;13.80;99.90
51839;DHT22;37886;53.174;6.368;2023-03-23T16:28:12;13.90;99.90
51839;DHT22;37886;53.174;6.368;2023-03-23T16:30:39;14.00;99.90
51839;DHT22;37886;53.174;6.368;2023-03-23T16:33:05;13.90;99.90
51839;DHT22;37886;53.174;6.368;2023-03-23T16:35:31;14.10;99.90
51839;DHT22;37886;53.174;6.368;2023-03-23T16:37:57;14.20;99.90
51839;DHT22;37886;53.174;6.368;2023-03-23T16:40:23;13.90;99.90
51839;DHT22;37886;53.174;6.368;2023-03-23T16:42:49;13.70;99.90
51839;DHT22;37886;53.174;6.368;2023-03-23T16:45:16;13.50;99.90
51839;DHT22;37886;53.174;6.368;2023-03-23T16:47:43;13.50;99.90
51839;DHT22;37886;53.174;6.368;2023-03-23T16:50:12;13.50;99.90
51839;DHT22;37886;53.174;6.368;2023-03-23T16:52:39;13.50;99.90
51839;DHT22;37886;53.174;6.368;2023-03-23T16:55:05;13.50;99.90
51839;DHT22;37886;53.174;6.368;2023-03-23T16:57:32;13.40;99.90
51839;DHT22;37886;53.174;6.368;2023-03-23T17:00:00;13.40;99.90
51839;DHT22;37886;53.174;6.368;2023-03-23T17:02:26;13.30;99.90
51839;DHT22;37886;53.174;6.368;2023-03-23T17:04:52;13.20;99.90
51839;DHT22;37886;53.174;6.368;2023-03-23T17:07:18;13.20;99.90
51839;DHT22;37886;53.174;6.368;2023-03-23T17:09:43;13.20;99.90
51839;DHT22;37886;53.174;6.368;2023-03-23T17:12:09;13.10;99.90
51839;DHT22;37886;53.174;6.368;2023-03-23T17:15:07;13.10;99.90
51839;DHT22;37886;53.174;6.368;2023-03-23T17:18:01;13.00;99.90
51839;DHT22;37886;53.174;6.368;2023-03-23T17:20:27;12.80;99.90
51839;DHT22;37886;53.174;6.368;2023-03-23T17:22:53;12.80;99.90
51839;DHT22;37886;53.174;6.368;2023-03-23T17:25:18;12.80;99.90
51839;DHT22;37886;53.174;6.368;2023-03-23T17:27:44;12.70;99.90
51839;DHT22;37886;53.174;6.368;2023-03-23T17:30:10;12.70;99.90
51839;DHT22;37886;53.174;6.368;2023-03-23T17:32:37;12.70;99.90
51839;DHT22;37886;53.174;6.368;2023-03-23T17:35:03;12.60;99.90
51839;DHT22;37886;53.174;6.368;2023-03-23T17:37:30;12.60;99.90
51839;DHT22;37886;53.174;6.368;2023-03-23T17:39:55;12.60;99.90
51839;DHT22;37886;53.174;6.368;2023-03-23T17:42:21;12.50;99.90
51839;DHT22;37886;53.174;6.368;2023-03-23T17:44:47;12.50;99.90